createdAt,value
2022-11-13T00:03:39.466Z,6.53
2022-11-13T00:08:59.865Z,6.43
2022-11-13T00:14:22.839Z,6.36
2022-11-13T00:19:43.358Z,6.42
2022-11-13T00:25:04.188Z,6.50
2022-11-13T00:30:24.593Z,6.55
2022-11-13T00:35:45.407Z,6.58
2022-11-13T00:41:06.191Z,6.58
2022-11-13T00:46:26.822Z,6.59
2022-11-13T00:51:49.110Z,6.58
2022-11-13T00:57:09.688Z,6.59
2022-11-13T01:02:30.055Z,6.55
2022-11-13T01:07:50.543Z,6.47
2022-11-13T01:13:11.364Z,6.39
2022-11-13T01:18:31.881Z,6.32
2022-11-13T01:23:52.495Z,6.26
2022-11-13T01:29:13.624Z,6.20
2022-11-13T01:34:34.375Z,6.13
2022-11-13T01:39:54.754Z,6.05
2022-11-13T01:45:53.263Z,6.00
2022-11-13T01:51:24.431Z,5.97
2022-11-13T01:56:45.177Z,5.92
2022-11-13T02:02:05.720Z,5.89
2022-11-13T02:07:26.448Z,5.90
2022-11-13T02:12:51.546Z,5.87
2022-11-13T02:18:13.868Z,5.74
2022-11-13T02:24:12.631Z,5.69
2022-11-13T02:29:33.005Z,5.55
2022-11-13T02:35:07.524Z,5.48
2022-11-13T02:40:28.350Z,5.50
2022-11-13T02:45:49.159Z,5.53
2022-11-13T02:51:09.988Z,5.58
2022-11-13T02:56:30.908Z,5.61
2022-11-13T03:01:51.561Z,5.64
2022-11-13T03:07:13.473Z,5.63
2022-11-13T03:12:34.398Z,5.58
2022-11-13T03:17:54.818Z,5.54
2022-11-13T03:23:15.324Z,5.49
2022-11-13T03:28:36.175Z,5.46
2022-11-13T03:33:56.676Z,5.42
2022-11-13T03:39:17.280Z,5.40
2022-11-13T03:44:38.057Z,5.42
2022-11-13T03:49:58.509Z,5.44
2022-11-13T03:55:19.233Z,5.45
2022-11-13T04:00:41.483Z,5.48
2022-11-13T04:06:02.201Z,5.52
2022-11-13T04:11:22.929Z,5.57
2022-11-13T04:16:43.336Z,5.63
2022-11-13T04:22:03.844Z,5.68
2022-11-13T04:27:24.076Z,5.67
2022-11-13T04:32:44.708Z,5.69
2022-11-13T04:38:05.182Z,5.69
2022-11-13T04:43:25.522Z,5.72
2022-11-13T04:48:46.108Z,5.76
2022-11-13T04:54:06.626Z,5.81
2022-11-13T04:59:27.543Z,5.85
2022-11-13T05:04:48.268Z,5.90
2022-11-13T05:10:09.801Z,5.94
2022-11-13T05:15:30.421Z,6.00
2022-11-13T05:20:51.138Z,6.05
2022-11-13T05:26:13.516Z,6.10
2022-11-13T05:31:34.216Z,6.12
2022-11-13T05:36:54.936Z,6.12
2022-11-13T05:42:15.676Z,6.11
2022-11-13T05:47:36.371Z,6.11
2022-11-13T05:52:56.784Z,6.13
2022-11-13T05:58:17.300Z,6.16
2022-11-13T06:03:39.012Z,6.20
2022-11-13T06:09:02.426Z,6.25
2022-11-13T06:14:23.351Z,6.33
2022-11-13T06:19:45.015Z,6.40
2022-11-13T06:25:05.954Z,6.49
2022-11-13T06:30:26.525Z,6.51
2022-11-13T06:35:47.349Z,6.55
2022-11-13T06:41:09.918Z,6.56
2022-11-13T06:46:31.563Z,6.57
2022-11-13T06:52:01.908Z,6.64
2022-11-13T06:57:22.821Z,6.68
2022-11-13T07:02:43.311Z,6.73
2022-11-13T07:08:03.853Z,6.87
2022-11-13T07:13:26.206Z,7.03
2022-11-13T07:18:51.909Z,7.20
2022-11-13T07:24:16.755Z,7.38
2022-11-13T07:29:39.325Z,7.57
2022-11-13T07:34:59.836Z,7.80
2022-11-13T07:40:20.247Z,8.01
2022-11-13T07:45:40.559Z,8.24
2022-11-13T07:51:02.619Z,8.43
2022-11-13T07:56:25.504Z,8.46
2022-11-13T08:01:46.093Z,8.42
2022-11-13T08:07:06.716Z,8.42
2022-11-13T08:12:27.228Z,8.35
2022-11-13T08:17:54.641Z,8.37
2022-11-13T08:23:15.217Z,8.42
2022-11-13T08:28:36.859Z,8.52
2022-11-13T08:33:57.895Z,8.57
2022-11-13T08:39:18.558Z,8.59
2022-11-13T08:44:49.382Z,8.68
2022-11-13T08:50:09.974Z,8.78
2022-11-13T08:55:30.383Z,8.99
2022-11-13T09:00:51.087Z,9.27
2022-11-13T09:06:11.931Z,9.48
2022-11-13T09:11:32.649Z,9.63
2022-11-13T09:16:53.241Z,9.85
2022-11-13T09:22:13.571Z,10.10
2022-11-13T09:27:34.367Z,10.32
2022-11-13T09:32:57.397Z,10.53
2022-11-13T09:38:17.982Z,10.69
2022-11-13T09:44:26.718Z,10.94
2022-11-13T09:49:58.813Z,11.24
2022-11-13T09:55:24.019Z,11.57
2022-11-13T10:00:45.232Z,11.84
2022-11-13T10:06:43.791Z,12.09
2022-11-13T10:12:07.698Z,12.37
2022-11-13T10:18:12.626Z,12.56
2022-11-13T10:23:35.911Z,12.70
2022-11-13T10:29:17.727Z,12.74
2022-11-13T10:34:38.945Z,12.78
2022-11-13T10:39:59.254Z,12.94
2022-11-13T10:45:22.759Z,13.21
2022-11-13T10:50:43.251Z,13.47
2022-11-13T10:56:14.003Z,13.67
2022-11-13T11:01:34.943Z,13.91
2022-11-13T11:07:19.190Z,13.95
2022-11-13T11:12:36.541Z,13.91
2022-11-13T11:17:59.518Z,13.96
2022-11-13T11:23:25.798Z,13.97
2022-11-13T11:28:59.488Z,14.03
2022-11-13T11:34:34.142Z,14.12
2022-11-13T11:39:54.669Z,14.21
2022-11-13T11:45:26.731Z,14.35
2022-11-13T11:51:05.770Z,14.47
2022-11-13T11:56:50.832Z,14.51
2022-11-13T12:02:32.779Z,14.48
2022-11-13T12:08:02.110Z,14.54
2022-11-13T12:13:30.247Z,14.58
2022-11-13T12:19:05.458Z,14.65
2022-11-13T12:24:31.708Z,14.59
2022-11-13T12:30:15.774Z,14.54
2022-11-13T12:35:38.258Z,14.64
2022-11-13T12:41:07.434Z,14.72
2022-11-13T12:46:37.174Z,14.75
2022-11-13T12:52:00.268Z,14.80
2022-11-13T12:57:30.089Z,14.86
2022-11-13T13:03:19.581Z,14.95
2022-11-13T13:08:58.323Z,15.02
2022-11-13T13:15:00.718Z,15.08
2022-11-13T13:20:20.954Z,15.10
2022-11-13T13:25:41.316Z,15.13
2022-11-13T13:31:16.810Z,15.15
2022-11-13T13:36:51.884Z,15.17
2022-11-13T13:42:30.705Z,15.16
2022-11-13T13:47:53.657Z,14.99
2022-11-13T13:53:36.227Z,14.76
2022-11-13T13:58:56.921Z,14.47
2022-11-13T14:04:20.959Z,13.66
2022-11-13T14:09:41.538Z,12.94
2022-11-13T14:15:05.502Z,12.24
2022-11-13T14:20:26.247Z,11.61
2022-11-13T14:25:48.404Z,11.13
2022-11-13T14:31:11.602Z,10.78
2022-11-13T14:36:34.140Z,10.48
2022-11-13T14:41:59.057Z,10.24
2022-11-13T14:47:31.891Z,10.01
2022-11-13T14:53:17.159Z,9.86
2022-11-13T14:58:47.200Z,9.66
2022-11-13T15:04:07.837Z,9.51
2022-11-13T15:09:30.766Z,9.41
2022-11-13T15:14:51.544Z,9.25
2022-11-13T15:20:18.143Z,9.08
2022-11-13T15:25:38.880Z,8.92
2022-11-13T15:30:59.599Z,8.78
2022-11-13T15:36:20.021Z,8.62
2022-11-13T15:41:41.180Z,8.42
2022-11-13T15:47:01.657Z,8.14
2022-11-13T15:52:24.319Z,7.87
2022-11-13T15:57:45.036Z,7.65
2022-11-13T16:03:11.727Z,7.52
2022-11-13T16:08:32.417Z,7.38
2022-11-13T16:13:53.338Z,7.26
2022-11-13T16:19:21.681Z,7.27
2022-11-13T16:24:44.197Z,7.31
2022-11-13T16:30:07.069Z,7.41
2022-11-13T16:35:27.785Z,7.51
2022-11-13T16:40:48.295Z,7.66
2022-11-13T16:46:20.902Z,7.74
2022-11-13T16:51:41.291Z,7.78
2022-11-13T16:57:01.625Z,7.84
2022-11-13T17:02:22.442Z,7.85
2022-11-13T17:07:42.954Z,7.77
2022-11-13T17:13:03.166Z,7.65
2022-11-13T17:18:23.576Z,7.57
2022-11-13T17:23:44.188Z,7.51
2022-11-13T17:29:05.880Z,7.47
2022-11-13T17:34:26.753Z,7.41
2022-11-13T17:39:46.964Z,7.38
2022-11-13T17:45:08.271Z,7.36
2022-11-13T17:50:29.214Z,7.31
2022-11-13T17:55:58.979Z,7.31
2022-11-13T18:01:22.100Z,7.34
2022-11-13T18:06:42.890Z,7.37
2022-11-13T18:12:03.361Z,7.38
2022-11-13T18:17:24.592Z,7.33
2022-11-13T18:22:45.106Z,7.35
2022-11-13T18:28:05.512Z,7.34
2022-11-13T18:33:26.616Z,7.35
2022-11-13T18:38:47.568Z,7.37
2022-11-13T18:44:08.498Z,7.33
2022-11-13T18:49:29.519Z,7.31
2022-11-13T18:54:50.412Z,7.28
2022-11-13T19:00:11.218Z,7.25
2022-11-13T19:05:31.575Z,7.22
2022-11-13T19:10:52.192Z,7.23
2022-11-13T19:16:19.599Z,7.28
2022-11-13T19:21:40.541Z,7.29
2022-11-13T19:27:01.113Z,7.26
2022-11-13T19:32:21.415Z,7.27
2022-11-13T19:37:42.038Z,7.26
2022-11-13T19:43:02.726Z,7.27
2022-11-13T19:48:23.369Z,7.26
2022-11-13T19:53:59.008Z,7.28
2022-11-13T19:59:19.449Z,7.32
2022-11-13T20:04:40.182Z,7.33
2022-11-13T20:10:00.888Z,7.36
2022-11-13T20:15:21.196Z,7.43
2022-11-13T20:20:44.423Z,7.47
2022-11-13T20:26:08.067Z,7.43
2022-11-13T20:31:28.741Z,7.30
2022-11-13T20:36:49.399Z,7.27
2022-11-13T20:42:09.812Z,7.29
2022-11-13T20:47:30.834Z,7.36
2022-11-13T20:52:51.558Z,7.40
2022-11-13T20:58:12.479Z,7.39
2022-11-13T21:03:38.601Z,7.28
2022-11-13T21:09:02.007Z,7.19
2022-11-13T21:14:22.620Z,7.17
2022-11-13T21:19:43.427Z,7.19
2022-11-13T21:25:04.882Z,7.16
2022-11-13T21:30:25.906Z,7.09
2022-11-13T21:35:46.723Z,7.10
2022-11-13T21:41:21.405Z,7.09
2022-11-13T21:46:42.300Z,7.04
2022-11-13T21:52:02.947Z,6.99
2022-11-13T21:57:24.413Z,6.99
2022-11-13T22:02:44.968Z,6.95
2022-11-13T22:08:05.684Z,6.97
2022-11-13T22:13:30.797Z,7.02
2022-11-13T22:18:55.929Z,7.08
2022-11-13T22:24:17.055Z,7.06
2022-11-13T22:29:37.781Z,7.11
2022-11-13T22:34:58.347Z,7.15
2022-11-13T22:40:19.010Z,7.21
2022-11-13T22:45:39.422Z,7.23
2022-11-13T22:51:11.230Z,7.23
2022-11-13T22:56:33.669Z,7.21
2022-11-13T23:01:54.073Z,7.24
2022-11-13T23:07:14.838Z,7.33
2022-11-13T23:12:35.201Z,7.37
2022-11-13T23:17:55.619Z,7.36
2022-11-13T23:23:17.458Z,7.34
2022-11-13T23:28:38.791Z,7.28
2022-11-13T23:33:59.183Z,7.24
2022-11-13T23:39:19.722Z,7.20
2022-11-13T23:44:40.127Z,7.15
2022-11-13T23:50:01.201Z,7.04
2022-11-13T23:55:22.798Z,6.92
